sensor_id;sensor_type;location;lat;lon;timestamp;P1;durP1;ratioP1;P2;durP2;ratioP2
67902;SDS011;54708;43.612;1.568;2024-01-06T00:01:44;5.60;;;3.95;;
67902;SDS011;54708;43.612;1.568;2024-01-06T00:04:09;3.50;;;3.17;;
67902;SDS011;54708;43.612;1.568;2024-01-06T00:06:35;4.25;;;3.85;;
67902;SDS011;54708;43.612;1.568;2024-01-06T00:09:00;4.63;;;3.80;;
67902;SDS011;54708;43.612;1.568;2024-01-06T00:11:25;4.93;;;3.92;;
67902;SDS011;54708;43.612;1.568;2024-01-06T00:13:51;4.65;;;3.83;;
67902;SDS011;54708;43.612;1.568;2024-01-06T00:16:16;5.32;;;3.40;;
67902;SDS011;54708;43.612;1.568;2024-01-06T00:18:43;6.03;;;3.67;;
67902;SDS011;54708;43.612;1.568;2024-01-06T00:21:08;9.77;;;3.97;;
67902;SDS011;54708;43.612;1.568;2024-01-06T00:23:34;8.18;;;4.22;;
67902;SDS011;54708;43.612;1.568;2024-01-06T00:25:59;8.70;;;4.60;;
67902;SDS011;54708;43.612;1.568;2024-01-06T00:28:24;8.48;;;4.68;;
67902;SDS011;54708;43.612;1.568;2024-01-06T00:30:50;7.20;;;4.13;;
67902;SDS011;54708;43.612;1.568;2024-01-06T00:33:15;7.20;;;4.03;;
67902;SDS011;54708;43.612;1.568;2024-01-06T00:35:40;7.88;;;4.10;;
67902;SDS011;54708;43.612;1.568;2024-01-06T00:38:06;11.10;;;4.78;;
67902;SDS011;54708;43.612;1.568;2024-01-06T00:40:31;8.75;;;4.72;;
67902;SDS011;54708;43.612;1.568;2024-01-06T00:42:57;9.00;;;4.70;;
67902;SDS011;54708;43.612;1.568;2024-01-06T00:45:23;7.15;;;4.22;;
67902;SDS011;54708;43.612;1.568;2024-01-06T00:47:48;9.10;;;4.72;;
67902;SDS011;54708;43.612;1.568;2024-01-06T00:50:14;10.40;;;4.63;;
67902;SDS011;54708;43.612;1.568;2024-01-06T00:52:39;6.88;;;4.63;;
67902;SDS011;54708;43.612;1.568;2024-01-06T00:55:05;6.57;;;4.05;;
67902;SDS011;54708;43.612;1.568;2024-01-06T00:57:30;8.07;;;4.40;;
67902;SDS011;54708;43.612;1.568;2024-01-06T00:59:56;9.90;;;4.65;;
67902;SDS011;54708;43.612;1.568;2024-01-06T01:02:21;7.80;;;4.65;;
67902;SDS011;54708;43.612;1.568;2024-01-06T01:04:46;6.85;;;4.13;;
67902;SDS011;54708;43.612;1.568;2024-01-06T01:07:12;15.40;;;6.40;;
67902;SDS011;54708;43.612;1.568;2024-01-06T01:09:37;6.63;;;5.03;;
67902;SDS011;54708;43.612;1.568;2024-01-06T01:12:03;9.15;;;4.15;;
67902;SDS011;54708;43.612;1.568;2024-01-06T01:14:28;8.65;;;4.30;;
67902;SDS011;54708;43.612;1.568;2024-01-06T01:16:54;10.25;;;4.60;;
67902;SDS011;54708;43.612;1.568;2024-01-06T01:19:19;11.38;;;4.28;;
67902;SDS011;54708;43.612;1.568;2024-01-06T01:21:44;6.68;;;4.05;;
67902;SDS011;54708;43.612;1.568;2024-01-06T01:24:10;8.65;;;4.55;;
67902;SDS011;54708;43.612;1.568;2024-01-06T01:26:35;12.00;;;4.57;;
67902;SDS011;54708;43.612;1.568;2024-01-06T01:29:00;7.75;;;4.80;;
67902;SDS011;54708;43.612;1.568;2024-01-06T01:31:26;10.75;;;4.35;;
67902;SDS011;54708;43.612;1.568;2024-01-06T01:33:51;8.88;;;5.03;;
67902;SDS011;54708;43.612;1.568;2024-01-06T01:36:17;10.65;;;5.50;;
67902;SDS011;54708;43.612;1.568;2024-01-06T01:38:43;9.73;;;4.75;;
67902;SDS011;54708;43.612;1.568;2024-01-06T01:41:08;6.68;;;4.40;;
67902;SDS011;54708;43.612;1.568;2024-01-06T01:43:34;15.85;;;5.28;;
67902;SDS011;54708;43.612;1.568;2024-01-06T01:45:59;9.82;;;5.47;;
67902;SDS011;54708;43.612;1.568;2024-01-06T01:48:25;9.10;;;4.70;;
67902;SDS011;54708;43.612;1.568;2024-01-06T01:50:51;6.30;;;4.80;;
67902;SDS011;54708;43.612;1.568;2024-01-06T01:53:18;9.65;;;5.63;;
67902;SDS011;54708;43.612;1.568;2024-01-06T01:55:43;9.52;;;5.07;;
67902;SDS011;54708;43.612;1.568;2024-01-06T01:58:09;10.45;;;4.35;;
67902;SDS011;54708;43.612;1.568;2024-01-06T02:00:35;12.48;;;5.13;;
67902;SDS011;54708;43.612;1.568;2024-01-06T02:03:01;11.27;;;4.38;;
67902;SDS011;54708;43.612;1.568;2024-01-06T02:05:28;11.95;;;5.00;;
67902;SDS011;54708;43.612;1.568;2024-01-06T02:07:53;10.73;;;4.63;;
67902;SDS011;54708;43.612;1.568;2024-01-06T02:10:19;13.02;;;4.97;;
67902;SDS011;54708;43.612;1.568;2024-01-06T02:12:44;11.40;;;4.45;;
67902;SDS011;54708;43.612;1.568;2024-01-06T02:15:10;7.82;;;4.07;;
67902;SDS011;54708;43.612;1.568;2024-01-06T02:17:35;6.97;;;4.53;;
67902;SDS011;54708;43.612;1.568;2024-01-06T02:20:00;8.55;;;4.63;;
67902;SDS011;54708;43.612;1.568;2024-01-06T02:22:26;10.30;;;5.72;;
67902;SDS011;54708;43.612;1.568;2024-01-06T02:24:51;7.20;;;4.30;;
67902;SDS011;54708;43.612;1.568;2024-01-06T02:27:16;5.60;;;4.60;;
67902;SDS011;54708;43.612;1.568;2024-01-06T02:29:42;5.85;;;3.83;;
67902;SDS011;54708;43.612;1.568;2024-01-06T02:32:07;7.65;;;4.30;;
67902;SDS011;54708;43.612;1.568;2024-01-06T02:34:33;7.05;;;3.90;;
67902;SDS011;54708;43.612;1.568;2024-01-06T02:36:59;7.95;;;4.55;;
67902;SDS011;54708;43.612;1.568;2024-01-06T02:39:25;12.10;;;4.45;;
67902;SDS011;54708;43.612;1.568;2024-01-06T02:41:50;10.23;;;4.57;;
67902;SDS011;54708;43.612;1.568;2024-01-06T02:44:15;12.77;;;5.00;;
67902;SDS011;54708;43.612;1.568;2024-01-06T02:46:41;6.85;;;4.35;;
67902;SDS011;54708;43.612;1.568;2024-01-06T02:49:07;11.40;;;5.38;;
67902;SDS011;54708;43.612;1.568;2024-01-06T02:51:33;8.50;;;4.70;;
67902;SDS011;54708;43.612;1.568;2024-01-06T02:53:58;13.82;;;5.43;;
67902;SDS011;54708;43.612;1.568;2024-01-06T02:56:23;8.65;;;5.03;;
67902;SDS011;54708;43.612;1.568;2024-01-06T02:58:49;8.07;;;4.72;;
67902;SDS011;54708;43.612;1.568;2024-01-06T03:01:14;7.53;;;4.70;;
67902;SDS011;54708;43.612;1.568;2024-01-06T03:03:41;6.57;;;3.67;;
67902;SDS011;54708;43.612;1.568;2024-01-06T03:06:06;9.07;;;4.57;;
67902;SDS011;54708;43.612;1.568;2024-01-06T03:08:31;9.38;;;4.43;;
67902;SDS011;54708;43.612;1.568;2024-01-06T03:10:57;7.05;;;4.32;;
67902;SDS011;54708;43.612;1.568;2024-01-06T03:13:22;7.90;;;4.35;;
67902;SDS011;54708;43.612;1.568;2024-01-06T03:15:48;7.25;;;3.95;;
67902;SDS011;54708;43.612;1.568;2024-01-06T03:18:13;6.18;;;4.15;;
67902;SDS011;54708;43.612;1.568;2024-01-06T03:20:39;10.80;;;4.53;;
67902;SDS011;54708;43.612;1.568;2024-01-06T03:23:04;10.07;;;5.65;;
67902;SDS011;54708;43.612;1.568;2024-01-06T03:25:29;15.10;;;4.63;;
67902;SDS011;54708;43.612;1.568;2024-01-06T03:27:55;11.77;;;4.35;;
67902;SDS011;54708;43.612;1.568;2024-01-06T03:30:20;9.10;;;4.28;;
67902;SDS011;54708;43.612;1.568;2024-01-06T03:32:45;12.50;;;4.32;;
67902;SDS011;54708;43.612;1.568;2024-01-06T03:35:11;11.90;;;4.25;;
67902;SDS011;54708;43.612;1.568;2024-01-06T03:37:36;12.05;;;3.95;;
67902;SDS011;54708;43.612;1.568;2024-01-06T03:40:01;9.50;;;4.40;;
67902;SDS011;54708;43.612;1.568;2024-01-06T03:42:27;8.45;;;4.07;;
67902;SDS011;54708;43.612;1.568;2024-01-06T03:44:53;6.28;;;4.10;;
67902;SDS011;54708;43.612;1.568;2024-01-06T03:47:18;6.10;;;3.97;;
67902;SDS011;54708;43.612;1.568;2024-01-06T03:49:44;6.93;;;5.03;;
67902;SDS011;54708;43.612;1.568;2024-01-06T03:52:09;6.30;;;4.63;;
67902;SDS011;54708;43.612;1.568;2024-01-06T03:54:35;8.63;;;4.10;;
67902;SDS011;54708;43.612;1.568;2024-01-06T03:57:00;12.75;;;4.65;;
67902;SDS011;54708;43.612;1.568;2024-01-06T03:59:25;10.57;;;4.63;;
67902;SDS011;54708;43.612;1.568;2024-01-06T04:01:52;11.07;;;5.03;;
67902;SDS011;54708;43.612;1.568;2024-01-06T04:04:17;13.30;;;4.47;;
67902;SDS011;54708;43.612;1.568;2024-01-06T04:06:42;10.48;;;4.63;;
67902;SDS011;54708;43.612;1.568;2024-01-06T04:09:08;8.07;;;4.63;;
67902;SDS011;54708;43.612;1.568;2024-01-06T04:11:34;12.55;;;4.55;;
67902;SDS011;54708;43.612;1.568;2024-01-06T04:13:59;13.10;;;4.25;;
67902;SDS011;54708;43.612;1.568;2024-01-06T04:16:25;5.82;;;3.97;;
67902;SDS011;54708;43.612;1.568;2024-01-06T04:18:52;7.93;;;4.47;;
67902;SDS011;54708;43.612;1.568;2024-01-06T04:21:17;7.47;;;4.28;;
67902;SDS011;54708;43.612;1.568;2024-01-06T04:23:42;8.60;;;4.28;;
67902;SDS011;54708;43.612;1.568;2024-01-06T04:26:08;4.95;;;3.85;;
67902;SDS011;54708;43.612;1.568;2024-01-06T04:28:33;10.35;;;5.47;;
67902;SDS011;54708;43.612;1.568;2024-01-06T04:30:59;9.35;;;5.13;;
67902;SDS011;54708;43.612;1.568;2024-01-06T04:33:24;8.50;;;5.07;;
67902;SDS011;54708;43.612;1.568;2024-01-06T04:35:49;8.27;;;5.07;;
67902;SDS011;54708;43.612;1.568;2024-01-06T04:38:15;6.93;;;4.90;;
67902;SDS011;54708;43.612;1.568;2024-01-06T04:40:40;9.07;;;4.47;;
67902;SDS011;54708;43.612;1.568;2024-01-06T04:43:06;9.23;;;4.75;;
67902;SDS011;54708;43.612;1.568;2024-01-06T04:45:32;10.57;;;4.88;;
67902;SDS011;54708;43.612;1.568;2024-01-06T04:47:57;13.40;;;5.35;;
67902;SDS011;54708;43.612;1.568;2024-01-06T04:50:23;10.80;;;6.07;;
67902;SDS011;54708;43.612;1.568;2024-01-06T04:52:48;12.70;;;5.43;;
67902;SDS011;54708;43.612;1.568;2024-01-06T04:55:13;14.52;;;4.95;;
67902;SDS011;54708;43.612;1.568;2024-01-06T04:57:39;10.05;;;4.85;;
67902;SDS011;54708;43.612;1.568;2024-01-06T05:00:04;11.82;;;5.07;;
67902;SDS011;54708;43.612;1.568;2024-01-06T05:02:30;8.60;;;4.80;;
67902;SDS011;54708;43.612;1.568;2024-01-06T05:04:55;10.57;;;5.18;;
67902;SDS011;54708;43.612;1.568;2024-01-06T05:07:21;10.63;;;4.47;;
67902;SDS011;54708;43.612;1.568;2024-01-06T05:09:46;13.75;;;5.85;;
67902;SDS011;54708;43.612;1.568;2024-01-06T05:12:12;12.30;;;5.13;;
67902;SDS011;54708;43.612;1.568;2024-01-06T05:14:37;9.88;;;5.32;;
67902;SDS011;54708;43.612;1.568;2024-01-06T05:17:02;9.75;;;4.72;;
67902;SDS011;54708;43.612;1.568;2024-01-06T05:19:28;14.45;;;6.65;;
67902;SDS011;54708;43.612;1.568;2024-01-06T05:21:53;11.43;;;6.55;;
67902;SDS011;54708;43.612;1.568;2024-01-06T05:24:19;16.85;;;5.57;;
67902;SDS011;54708;43.612;1.568;2024-01-06T05:26:45;13.85;;;5.70;;
67902;SDS011;54708;43.612;1.568;2024-01-06T05:29:10;14.95;;;5.60;;
67902;SDS011;54708;43.612;1.568;2024-01-06T05:31:36;14.93;;;5.50;;
67902;SDS011;54708;43.612;1.568;2024-01-06T05:34:01;10.00;;;5.38;;
67902;SDS011;54708;43.612;1.568;2024-01-06T05:36:26;8.80;;;5.30;;
67902;SDS011;54708;43.612;1.568;2024-01-06T05:38:52;11.23;;;4.45;;
67902;SDS011;54708;43.612;1.568;2024-01-06T05:41:17;14.18;;;6.32;;
67902;SDS011;54708;43.612;1.568;2024-01-06T05:43:43;9.52;;;5.07;;
67902;SDS011;54708;43.612;1.568;2024-01-06T05:46:09;11.10;;;5.05;;
67902;SDS011;54708;43.612;1.568;2024-01-06T05:48:35;8.85;;;5.15;;
67902;SDS011;54708;43.612;1.568;2024-01-06T05:51:01;9.68;;;4.78;;
67902;SDS011;54708;43.612;1.568;2024-01-06T05:53:26;8.40;;;4.50;;
67902;SDS011;54708;43.612;1.568;2024-01-06T05:55:52;14.93;;;6.57;;
67902;SDS011;54708;43.612;1.568;2024-01-06T05:58:17;11.10;;;5.05;;
67902;SDS011;54708;43.612;1.568;2024-01-06T06:00:42;11.20;;;5.78;;
67902;SDS011;54708;43.612;1.568;2024-01-06T06:03:08;11.98;;;5.05;;
67902;SDS011;54708;43.612;1.568;2024-01-06T06:05:33;14.57;;;4.82;;
67902;SDS011;54708;43.612;1.568;2024-01-06T06:07:58;17.35;;;5.18;;
67902;SDS011;54708;43.612;1.568;2024-01-06T06:10:24;16.45;;;7.53;;
67902;SDS011;54708;43.612;1.568;2024-01-06T06:12:55;11.48;;;5.30;;
67902;SDS011;54708;43.612;1.568;2024-01-06T06:15:20;10.48;;;5.47;;
67902;SDS011;54708;43.612;1.568;2024-01-06T06:17:45;13.93;;;4.45;;
67902;SDS011;54708;43.612;1.568;2024-01-06T06:20:11;10.35;;;5.65;;
67902;SDS011;54708;43.612;1.568;2024-01-06T06:22:36;10.75;;;5.07;;
67902;SDS011;54708;43.612;1.568;2024-01-06T06:25:02;12.00;;;5.65;;
67902;SDS011;54708;43.612;1.568;2024-01-06T06:27:28;13.82;;;5.45;;
67902;SDS011;54708;43.612;1.568;2024-01-06T06:29:54;13.93;;;5.22;;
67902;SDS011;54708;43.612;1.568;2024-01-06T06:32:21;8.60;;;5.30;;
67902;SDS011;54708;43.612;1.568;2024-01-06T06:34:46;13.05;;;5.35;;
67902;SDS011;54708;43.612;1.568;2024-01-06T06:37:11;9.82;;;5.90;;
67902;SDS011;54708;43.612;1.568;2024-01-06T06:39:37;9.57;;;5.10;;
67902;SDS011;54708;43.612;1.568;2024-01-06T06:42:02;10.77;;;4.72;;
67902;SDS011;54708;43.612;1.568;2024-01-06T06:44:28;11.32;;;6.20;;
67902;SDS011;54708;43.612;1.568;2024-01-06T06:46:56;8.32;;;4.85;;
67902;SDS011;54708;43.612;1.568;2024-01-06T06:49:22;11.75;;;4.90;;
67902;SDS011;54708;43.612;1.568;2024-01-06T06:51:47;9.20;;;4.78;;
67902;SDS011;54708;43.612;1.568;2024-01-06T06:54:16;13.45;;;5.25;;
67902;SDS011;54708;43.612;1.568;2024-01-06T06:56:42;11.63;;;5.28;;
67902;SDS011;54708;43.612;1.568;2024-01-06T06:59:07;12.82;;;5.50;;
67902;SDS011;54708;43.612;1.568;2024-01-06T07:01:32;10.77;;;4.43;;
67902;SDS011;54708;43.612;1.568;2024-01-06T07:03:59;6.50;;;5.75;;
67902;SDS011;54708;43.612;1.568;2024-01-06T07:06:24;14.00;;;5.22;;
67902;SDS011;54708;43.612;1.568;2024-01-06T07:08:49;11.68;;;5.85;;
67902;SDS011;54708;43.612;1.568;2024-01-06T07:11:15;11.32;;;5.30;;
67902;SDS011;54708;43.612;1.568;2024-01-06T07:13:43;9.02;;;5.35;;
67902;SDS011;54708;43.612;1.568;2024-01-06T07:16:08;8.68;;;4.60;;
67902;SDS011;54708;43.612;1.568;2024-01-06T07:18:34;7.57;;;4.43;;
67902;SDS011;54708;43.612;1.568;2024-01-06T07:21:00;6.65;;;4.70;;
67902;SDS011;54708;43.612;1.568;2024-01-06T07:23:25;7.05;;;4.10;;
67902;SDS011;54708;43.612;1.568;2024-01-06T07:25:50;8.32;;;4.70;;
67902;SDS011;54708;43.612;1.568;2024-01-06T07:28:16;10.05;;;4.45;;
67902;SDS011;54708;43.612;1.568;2024-01-06T07:30:41;7.72;;;4.15;;
67902;SDS011;54708;43.612;1.568;2024-01-06T07:33:07;6.38;;;3.90;;
67902;SDS011;54708;43.612;1.568;2024-01-06T07:35:32;6.43;;;3.97;;
67902;SDS011;54708;43.612;1.568;2024-01-06T07:37:58;10.80;;;5.60;;
67902;SDS011;54708;43.612;1.568;2024-01-06T07:40:24;8.35;;;4.72;;
67902;SDS011;54708;43.612;1.568;2024-01-06T07:42:50;6.15;;;3.33;;
67902;SDS011;54708;43.612;1.568;2024-01-06T07:45:16;7.43;;;3.72;;
67902;SDS011;54708;43.612;1.568;2024-01-06T07:47:42;6.35;;;3.65;;
67902;SDS011;54708;43.612;1.568;2024-01-06T07:50:07;8.15;;;4.22;;
67902;SDS011;54708;43.612;1.568;2024-01-06T07:52:33;5.97;;;3.10;;
67902;SDS011;54708;43.612;1.568;2024-01-06T07:54:59;9.98;;;3.65;;
67902;SDS011;54708;43.612;1.568;2024-01-06T07:57:24;6.22;;;3.92;;
67902;SDS011;54708;43.612;1.568;2024-01-06T07:59:49;4.75;;;3.67;;
67902;SDS011;54708;43.612;1.568;2024-01-06T08:02:15;5.38;;;4.03;;
67902;SDS011;54708;43.612;1.568;2024-01-06T08:04:41;4.45;;;3.67;;
67902;SDS011;54708;43.612;1.568;2024-01-06T08:07:06;5.40;;;4.00;;
67902;SDS011;54708;43.612;1.568;2024-01-06T08:09:31;6.47;;;3.97;;
67902;SDS011;54708;43.612;1.568;2024-01-06T08:11:57;6.15;;;4.43;;
67902;SDS011;54708;43.612;1.568;2024-01-06T08:14:22;5.13;;;4.20;;
67902;SDS011;54708;43.612;1.568;2024-01-06T08:16:48;4.85;;;3.72;;
67902;SDS011;54708;43.612;1.568;2024-01-06T08:19:13;5.60;;;3.55;;
67902;SDS011;54708;43.612;1.568;2024-01-06T08:21:38;3.08;;;2.78;;
67902;SDS011;54708;43.612;1.568;2024-01-06T08:24:04;3.67;;;2.83;;
67902;SDS011;54708;43.612;1.568;2024-01-06T08:26:29;3.80;;;3.33;;
67902;SDS011;54708;43.612;1.568;2024-01-06T08:28:55;4.22;;;3.05;;
67902;SDS011;54708;43.612;1.568;2024-01-06T08:31:20;6.68;;;3.10;;
67902;SDS011;54708;43.612;1.568;2024-01-06T08:33:47;4.03;;;3.35;;
67902;SDS011;54708;43.612;1.568;2024-01-06T08:36:12;4.25;;;2.83;;
67902;SDS011;54708;43.612;1.568;2024-01-06T08:38:37;4.53;;;3.13;;
67902;SDS011;54708;43.612;1.568;2024-01-06T08:41:03;5.82;;;3.50;;
67902;SDS011;54708;43.612;1.568;2024-01-06T08:43:28;4.75;;;3.10;;
67902;SDS011;54708;43.612;1.568;2024-01-06T08:45:54;7.15;;;3.88;;
67902;SDS011;54708;43.612;1.568;2024-01-06T08:48:19;4.07;;;2.80;;
67902;SDS011;54708;43.612;1.568;2024-01-06T08:50:45;3.72;;;3.00;;
67902;SDS011;54708;43.612;1.568;2024-01-06T08:53:11;9.23;;;3.80;;
67902;SDS011;54708;43.612;1.568;2024-01-06T08:55:36;3.38;;;2.70;;
67902;SDS011;54708;43.612;1.568;2024-01-06T08:58:02;4.18;;;3.10;;
67902;SDS011;54708;43.612;1.568;2024-01-06T09:00:27;5.50;;;4.13;;
67902;SDS011;54708;43.612;1.568;2024-01-06T09:02:53;6.47;;;3.20;;
67902;SDS011;54708;43.612;1.568;2024-01-06T09:05:18;6.38;;;3.20;;
67902;SDS011;54708;43.612;1.568;2024-01-06T09:07:43;5.28;;;2.97;;
67902;SDS011;54708;43.612;1.568;2024-01-06T09:10:14;4.72;;;3.03;;
67902;SDS011;54708;43.612;1.568;2024-01-06T09:12:39;6.35;;;2.95;;
67902;SDS011;54708;43.612;1.568;2024-01-06T09:15:05;4.82;;;2.90;;
67902;SDS011;54708;43.612;1.568;2024-01-06T09:17:31;2.80;;;2.55;;
67902;SDS011;54708;43.612;1.568;2024-01-06T09:19:56;3.83;;;2.97;;
67902;SDS011;54708;43.612;1.568;2024-01-06T09:22:21;5.28;;;3.65;;
67902;SDS011;54708;43.612;1.568;2024-01-06T09:24:48;7.60;;;3.55;;
67902;SDS011;54708;43.612;1.568;2024-01-06T09:27:14;4.45;;;2.67;;
67902;SDS011;54708;43.612;1.568;2024-01-06T09:29:40;5.90;;;3.42;;
67902;SDS011;54708;43.612;1.568;2024-01-06T09:32:06;5.47;;;3.53;;
67902;SDS011;54708;43.612;1.568;2024-01-06T09:34:31;5.70;;;3.33;;
67902;SDS011;54708;43.612;1.568;2024-01-06T09:36:57;3.22;;;2.53;;
67902;SDS011;54708;43.612;1.568;2024-01-06T09:39:22;4.30;;;3.38;;
67902;SDS011;54708;43.612;1.568;2024-01-06T09:41:48;3.75;;;3.20;;
67902;SDS011;54708;43.612;1.568;2024-01-06T09:44:13;6.88;;;3.00;;
67902;SDS011;54708;43.612;1.568;2024-01-06T09:46:38;4.55;;;3.60;;
67902;SDS011;54708;43.612;1.568;2024-01-06T09:49:05;5.45;;;2.95;;
67902;SDS011;54708;43.612;1.568;2024-01-06T09:51:32;3.80;;;3.25;;
67902;SDS011;54708;43.612;1.568;2024-01-06T09:54:03;3.55;;;2.92;;
67902;SDS011;54708;43.612;1.568;2024-01-06T09:56:32;7.95;;;3.22;;
67902;SDS011;54708;43.612;1.568;2024-01-06T09:58:57;4.43;;;2.42;;
67902;SDS011;54708;43.612;1.568;2024-01-06T10:01:23;3.15;;;2.55;;
67902;SDS011;54708;43.612;1.568;2024-01-06T10:03:49;4.68;;;2.85;;
67902;SDS011;54708;43.612;1.568;2024-01-06T10:06:14;7.80;;;4.20;;
67902;SDS011;54708;43.612;1.568;2024-01-06T10:08:43;6.00;;;2.88;;
67902;SDS011;54708;43.612;1.568;2024-01-06T10:11:09;5.03;;;4.10;;
67902;SDS011;54708;43.612;1.568;2024-01-06T10:13:35;6.32;;;3.05;;
67902;SDS011;54708;43.612;1.568;2024-01-06T10:16:02;6.50;;;3.13;;
67902;SDS011;54708;43.612;1.568;2024-01-06T10:18:28;6.55;;;3.92;;
67902;SDS011;54708;43.612;1.568;2024-01-06T10:20:54;7.68;;;5.07;;
67902;SDS011;54708;43.612;1.568;2024-01-06T10:23:22;6.90;;;4.07;;
67902;SDS011;54708;43.612;1.568;2024-01-06T10:25:49;6.30;;;4.55;;
67902;SDS011;54708;43.612;1.568;2024-01-06T10:28:17;7.40;;;4.80;;
67902;SDS011;54708;43.612;1.568;2024-01-06T10:30:42;4.90;;;3.00;;
67902;SDS011;54708;43.612;1.568;2024-01-06T10:33:11;7.63;;;3.78;;
67902;SDS011;54708;43.612;1.568;2024-01-06T10:35:38;5.07;;;3.67;;
67902;SDS011;54708;43.612;1.568;2024-01-06T10:38:04;5.10;;;3.97;;
67902;SDS011;54708;43.612;1.568;2024-01-06T10:40:29;8.07;;;3.00;;
67902;SDS011;54708;43.612;1.568;2024-01-06T10:42:55;7.18;;;3.25;;
67902;SDS011;54708;43.612;1.568;2024-01-06T10:45:22;5.22;;;3.42;;
67902;SDS011;54708;43.612;1.568;2024-01-06T10:47:48;6.60;;;3.92;;
67902;SDS011;54708;43.612;1.568;2024-01-06T10:50:14;5.80;;;3.15;;
67902;SDS011;54708;43.612;1.568;2024-01-06T10:52:42;4.82;;;3.22;;
67902;SDS011;54708;43.612;1.568;2024-01-06T10:55:08;3.40;;;2.55;;
67902;SDS011;54708;43.612;1.568;2024-01-06T10:57:34;7.57;;;3.85;;
67902;SDS011;54708;43.612;1.568;2024-01-06T11:00:02;3.50;;;2.78;;
67902;SDS011;54708;43.612;1.568;2024-01-06T11:02:30;5.00;;;2.97;;
67902;SDS011;54708;43.612;1.568;2024-01-06T11:04:56;5.35;;;3.38;;
67902;SDS011;54708;43.612;1.568;2024-01-06T11:07:23;4.28;;;2.47;;
67902;SDS011;54708;43.612;1.568;2024-01-06T11:12:29;5.60;;;3.53;;
67902;SDS011;54708;43.612;1.568;2024-01-06T11:14:54;3.25;;;2.65;;
67902;SDS011;54708;43.612;1.568;2024-01-06T11:17:54;4.30;;;2.45;;
67902;SDS011;54708;43.612;1.568;2024-01-06T11:20:18;5.30;;;2.78;;
67902;SDS011;54708;43.612;1.568;2024-01-06T11:22:45;9.07;;;3.30;;
67902;SDS011;54708;43.612;1.568;2024-01-06T11:25:17;4.70;;;2.92;;
67902;SDS011;54708;43.612;1.568;2024-01-06T11:27:45;3.90;;;3.53;;
67902;SDS011;54708;43.612;1.568;2024-01-06T11:30:21;7.90;;;3.72;;
67902;SDS011;54708;43.612;1.568;2024-01-06T11:32:50;5.20;;;3.00;;
67902;SDS011;54708;43.612;1.568;2024-01-06T11:35:18;11.70;;;3.33;;
67902;SDS011;54708;43.612;1.568;2024-01-06T11:40:10;8.38;;;4.72;;
67902;SDS011;54708;43.612;1.568;2024-01-06T11:42:41;4.50;;;3.30;;
67902;SDS011;54708;43.612;1.568;2024-01-06T11:45:07;4.30;;;3.38;;
67902;SDS011;54708;43.612;1.568;2024-01-06T11:47:33;5.20;;;3.10;;
67902;SDS011;54708;43.612;1.568;2024-01-06T11:49:59;3.83;;;2.80;;
67902;SDS011;54708;43.612;1.568;2024-01-06T11:52:28;3.85;;;2.78;;
67902;SDS011;54708;43.612;1.568;2024-01-06T11:54:54;6.32;;;3.13;;
67902;SDS011;54708;43.612;1.568;2024-01-06T11:57:20;4.05;;;2.92;;
67902;SDS011;54708;43.612;1.568;2024-01-06T11:59:47;5.85;;;2.78;;
67902;SDS011;54708;43.612;1.568;2024-01-06T12:02:13;4.65;;;3.30;;
67902;SDS011;54708;43.612;1.568;2024-01-06T12:04:38;6.55;;;3.13;;
67902;SDS011;54708;43.612;1.568;2024-01-06T12:07:09;4.38;;;3.17;;
67902;SDS011;54708;43.612;1.568;2024-01-06T12:09:35;3.97;;;2.90;;
67902;SDS011;54708;43.612;1.568;2024-01-06T12:12:03;4.18;;;2.63;;
67902;SDS011;54708;43.612;1.568;2024-01-06T12:14:30;3.40;;;3.00;;
67902;SDS011;54708;43.612;1.568;2024-01-06T12:16:55;4.88;;;2.72;;
67902;SDS011;54708;43.612;1.568;2024-01-06T12:19:25;6.25;;;2.70;;
67902;SDS011;54708;43.612;1.568;2024-01-06T12:21:50;8.93;;;2.67;;
67902;SDS011;54708;43.612;1.568;2024-01-06T12:24:16;2.53;;;2.33;;
67902;SDS011;54708;43.612;1.568;2024-01-06T12:26:45;4.50;;;2.40;;
67902;SDS011;54708;43.612;1.568;2024-01-06T12:29:10;2.95;;;2.50;;
67902;SDS011;54708;43.612;1.568;2024-01-06T12:31:37;4.28;;;2.85;;
67902;SDS011;54708;43.612;1.568;2024-01-06T12:34:04;3.05;;;2.40;;
67902;SDS011;54708;43.612;1.568;2024-01-06T12:36:29;4.60;;;3.10;;
67902;SDS011;54708;43.612;1.568;2024-01-06T12:38:56;4.85;;;2.45;;
67902;SDS011;54708;43.612;1.568;2024-01-06T12:41:23;3.30;;;2.38;;
67902;SDS011;54708;43.612;1.568;2024-01-06T12:43:49;6.18;;;3.15;;
67902;SDS011;54708;43.612;1.568;2024-01-06T12:46:14;3.13;;;2.63;;
67902;SDS011;54708;43.612;1.568;2024-01-06T12:48:40;4.85;;;2.38;;
67902;SDS011;54708;43.612;1.568;2024-01-06T12:51:05;2.90;;;2.28;;
67902;SDS011;54708;43.612;1.568;2024-01-06T12:53:32;5.95;;;2.75;;
67902;SDS011;54708;43.612;1.568;2024-01-06T12:55:57;2.95;;;2.20;;
67902;SDS011;54708;43.612;1.568;2024-01-06T12:58:23;5.93;;;2.97;;
67902;SDS011;54708;43.612;1.568;2024-01-06T13:00:48;5.75;;;2.58;;
67902;SDS011;54708;43.612;1.568;2024-01-06T13:03:14;7.30;;;2.70;;
67902;SDS011;54708;43.612;1.568;2024-01-06T13:05:39;3.47;;;2.50;;
67902;SDS011;54708;43.612;1.568;2024-01-06T13:08:05;2.70;;;2.38;;
67902;SDS011;54708;43.612;1.568;2024-01-06T13:10:31;7.43;;;4.18;;
67902;SDS011;54708;43.612;1.568;2024-01-06T13:12:56;2.83;;;2.55;;
67902;SDS011;54708;43.612;1.568;2024-01-06T13:15:21;8.63;;;2.88;;
67902;SDS011;54708;43.612;1.568;2024-01-06T13:17:47;4.18;;;2.85;;
67902;SDS011;54708;43.612;1.568;2024-01-06T13:20:13;4.07;;;2.67;;
67902;SDS011;54708;43.612;1.568;2024-01-06T13:22:41;3.10;;;2.58;;
67902;SDS011;54708;43.612;1.568;2024-01-06T13:25:06;4.03;;;3.20;;
67902;SDS011;54708;43.612;1.568;2024-01-06T13:27:33;3.33;;;2.75;;
67902;SDS011;54708;43.612;1.568;2024-01-06T13:29:59;3.65;;;3.05;;
67902;SDS011;54708;43.612;1.568;2024-01-06T13:32:24;4.65;;;2.55;;
67902;SDS011;54708;43.612;1.568;2024-01-06T13:34:52;5.72;;;3.10;;
67902;SDS011;54708;43.612;1.568;2024-01-06T13:37:19;4.47;;;2.67;;
67902;SDS011;54708;43.612;1.568;2024-01-06T13:39:47;4.70;;;2.88;;
67902;SDS011;54708;43.612;1.568;2024-01-06T13:42:12;4.18;;;2.97;;
67902;SDS011;54708;43.612;1.568;2024-01-06T13:44:38;6.50;;;3.70;;
67902;SDS011;54708;43.612;1.568;2024-01-06T13:47:04;4.55;;;2.90;;
67902;SDS011;54708;43.612;1.568;2024-01-06T13:49:30;4.25;;;2.58;;
67902;SDS011;54708;43.612;1.568;2024-01-06T13:51:55;6.03;;;2.85;;
67902;SDS011;54708;43.612;1.568;2024-01-06T13:54:21;4.28;;;2.33;;
67902;SDS011;54708;43.612;1.568;2024-01-06T13:56:46;2.85;;;2.22;;
67902;SDS011;54708;43.612;1.568;2024-01-06T13:59:12;7.20;;;2.42;;
67902;SDS011;54708;43.612;1.568;2024-01-06T14:01:37;3.22;;;2.47;;
67902;SDS011;54708;43.612;1.568;2024-01-06T14:04:03;2.55;;;2.35;;
67902;SDS011;54708;43.612;1.568;2024-01-06T14:06:30;3.15;;;2.42;;
67902;SDS011;54708;43.612;1.568;2024-01-06T14:08:56;3.28;;;2.70;;
67902;SDS011;54708;43.612;1.568;2024-01-06T14:11:28;3.88;;;2.17;;
67902;SDS011;54708;43.612;1.568;2024-01-06T14:13:56;3.90;;;2.35;;
67902;SDS011;54708;43.612;1.568;2024-01-06T14:16:22;4.28;;;2.40;;
67902;SDS011;54708;43.612;1.568;2024-01-06T14:18:47;2.45;;;2.05;;
67902;SDS011;54708;43.612;1.568;2024-01-06T14:21:13;5.03;;;2.20;;
67902;SDS011;54708;43.612;1.568;2024-01-06T14:23:44;4.22;;;2.90;;
67902;SDS011;54708;43.612;1.568;2024-01-06T14:26:18;3.40;;;2.72;;
67902;SDS011;54708;43.612;1.568;2024-01-06T14:28:45;3.85;;;2.38;;
67902;SDS011;54708;43.612;1.568;2024-01-06T14:31:11;5.75;;;2.70;;
67902;SDS011;54708;43.612;1.568;2024-01-06T14:33:36;4.07;;;2.28;;
67902;SDS011;54708;43.612;1.568;2024-01-06T14:36:02;4.57;;;2.92;;
67902;SDS011;54708;43.612;1.568;2024-01-06T14:38:28;3.13;;;2.65;;
67902;SDS011;54708;43.612;1.568;2024-01-06T14:40:53;4.40;;;3.15;;
67902;SDS011;54708;43.612;1.568;2024-01-06T14:43:19;8.25;;;3.22;;